Latest Weather Observations for Century Mine

IDQ60801

Issued at 2:05 pm EST Wednesday 3 September 2014 (issued every 30 minutes, with the page automatically refreshed every 10 minutes)

About weather observations | Map of weather stations | Latest weather observations for QLD | Other Formats
Station Details ID: 029167 Name: CENTURY MINE Lat: -18.76 Lon: 138.71 Height: 126.8 m
Data from the previous 72 hours. | See also: Recent months at Century Mine
Date/Time
EST
Temp
°C
App
Temp
°C
Dew
Point
Rel
Hum
%
Delta-T
°C
Wind Press
QNH
hPa
Press
MSL
hPa
Rain
since 9 am
mm
Dir
 
Spd
km/h
Gust
km/h
Spd
kts
Gust
kts
03/02:00pm 28.7 22.4 -5.9 10 14.8 SSE 19 28 10 15 1016.3 1015.6 0.0
03/01:30pm 27.7 21.7 -6.6 10 14.4 SSW 17 28 9 15 1016.8 1016.1 0.0
03/01:00pm 27.0 21.8 -5.9 11 13.9 SSE 13 22 7 12 1017.3 1016.6 0.0
03/12:30pm 26.5 21.4 -5.2 12 13.5 SSE 13 20 7 11 1018.0 1017.3 0.0
03/12:00pm 26.0 20.6 -4.5 13 13.1 S 15 24 8 13 1018.4 1017.8 0.0
03/11:30am 25.6 20.7 -3.8 14 12.7 SE 13 22 7 12 1018.9 1018.3 0.0
03/11:00am 24.1 18.6 -5.0 14 12.1 SSE 15 26 8 14 1019.7 1019.1 0.0
03/10:30am 23.0 17.5 -5.0 15 11.6 SE 15 24 8 13 1020.1 1019.4 0.0
03/10:00am 22.6 17.3 -3.7 17 11.1 SSE 15 26 8 14 1020.2 1019.5 0.0
03/09:30am 21.5 15.4 -3.8 18 10.6 SE 19 26 10 14 1020.3 1019.6 0.0
03/09:00am 20.7 15.0 -3.7 19 10.1 SSE 17 26 9 14 1020.2 1019.5 0.0
03/08:30am 19.6 14.0 -3.3 21 9.5 SSE 17 28 9 15 1020.2 1019.5 0.0
03/08:00am 18.6 14.2 -2.3 24 8.7 S 11 15 6 8 1019.8 1019.2 0.0
03/07:30am 17.0 13.1 -1.6 28 7.8 S 9 13 5 7 1019.6 1019.0 0.0
03/07:00am 15.5 11.2 -1.5 31 7.0 S 11 13 6 7 1019.3 1018.7 0.0
03/06:30am 15.6 11.7 -1.4 31 7.1 S 9 11 5 6 1019.0 1018.4 0.0
03/06:00am 16.0 12.2 -0.7 32 7.0 S 9 13 5 7 1018.7 1018.1 0.0
03/05:30am 16.4 12.6 -0.8 31 7.3 S 9 13 5 7 1018.4 1017.8 0.0
03/05:00am 17.1 13.0 -0.1 31 7.4 S 11 15 6 8 1017.9 1017.2 0.0
03/04:30am 17.8 14.1 0.0 30 7.8 S 9 15 5 8 1017.8 1017.1 0.0
03/04:00am 18.4 14.4 0.5 30 7.9 S 11 15 6 8 1017.9 1017.2 0.0
03/03:30am 19.2 15.6 0.8 29 8.3 S 9 13 5 7 1017.9 1017.2 0.0
03/03:00am 20.1 15.8 1.0 28 8.7 S 13 24 7 13 1017.8 1017.1 0.0
03/02:30am 20.8 16.2 1.6 28 8.9 SSE 15 22 8 12 1017.8 1017.1 0.0
03/02:00am 21.2 16.7 2.0 28 8.9 S 15 22 8 12 1017.8 1017.1 0.0
03/01:30am 21.6 17.0 1.8 27 9.2 S 15 24 8 13 1018.0 1017.3 0.0
03/01:00am 22.3 17.4 1.9 26 9.6 S 17 28 9 15 1018.0 1017.3 0.0
03/12:30am 22.9 18.1 2.4 26 9.8 S 17 26 9 14 1018.0 1017.3 0.0
03/12:00am 23.4 18.9 2.3 25 10.1 S 15 22 8 12 1017.8 1017.1 0.0
 
Date/Time
EST
Temp
°C
App
Temp
°C
Dew
Point
Rel
Hum
%
Delta-T
°C
Wind Press
QNH
hPa
Press
MSL
hPa
Rain
since 9 am
mm
Dir
 
Spd
km/h
Gust
km/h
Spd
kts
Gust
kts
02/11:30pm 23.7 19.2 2.0 24 10.3 S 15 22 8 12 1017.8 1017.1 0.0
02/11:00pm 24.4 19.4 1.3 22 10.9 S 17 24 9 13 1017.6 1016.9 0.0
02/10:30pm 25.0 19.9 0.5 20 11.4 S 17 24 9 13 1017.5 1016.8 0.0
02/10:00pm 25.4 20.6 0.1 19 11.7 S 15 20 8 11 1017.4 1016.7 0.0
02/09:30pm 25.9 20.9 -1.0 17 12.3 S 15 24 8 13 1017.2 1016.5 0.0
02/09:00pm 25.9 21.5 -2.7 15 12.7 S 11 17 6 9 1016.9 1016.2 0.0
02/08:30pm 26.4 21.9 -3.2 14 13.1 S 11 19 6 10 1016.7 1016.0 0.0
02/08:00pm 27.1 22.3 -2.7 14 13.3 S 13 19 7 10 1016.2 1015.5 0.0
02/07:30pm 26.7 22.5 -4.0 13 13.4 S 9 15 5 8 1015.8 1015.1 0.0
02/07:00pm 28.1 23.9 -3.9 12 14.1 SSE 9 13 5 7 1015.5 1014.8 0.0
02/06:30pm 29.9 25.0 -3.7 11 15.1 SE 13 19 7 10 1015.1 1014.4 0.0
02/06:00pm 31.3 26.0 -3.9 10 15.9 SSE 15 26 8 14 1014.9 1014.2 0.0
02/05:30pm 32.1 26.3 -4.7 9 16.6 SSE 17 26 9 14 1014.8 1014.1 0.0
02/05:00pm 33.0 27.3 -4.0 9 17.0 SSE 17 24 9 13 1014.7 1014.0 0.0
02/04:30pm 33.5 27.8 -3.7 9 17.2 S 17 24 9 13 1014.5 1013.8 0.0
02/04:00pm 33.9 28.8 -4.9 8 17.6 S 13 20 7 11 1014.5 1013.8 0.0
02/03:30pm 33.6 27.7 -5.2 8 17.5 SSE 17 30 9 16 1014.7 1014.0 0.0
02/03:00pm 33.9 27.7 -4.9 8 17.6 S 19 35 10 19 1014.9 1014.2 0.0
02/02:30pm 34.4 28.4 -6.3 7 18.2 SSE 17 30 9 16 1015.1 1014.4 0.0
02/02:00pm 34.2 28.2 -6.5 7 18.1 SSE 17 32 9 17 1015.3 1014.6 0.0
02/01:30pm 34.0 28.0 -6.6 7 18.0 SSE 17 26 9 14 1015.6 1014.9 0.0
02/01:00pm 34.2 28.2 -6.5 7 18.1 SE 17 26 9 14 1015.9 1015.2 0.0
02/12:30pm 33.1 27.0 -7.3 7 17.5 SSE 17 32 9 17 1016.2 1015.5 0.0
02/12:00pm 32.8 27.3 -5.7 8 17.1 SE 15 24 8 13 1016.8 1016.1 0.0
02/11:30am 32.6 27.4 -5.9 8 17.0 SE 13 20 7 11 1017.6 1016.9 0.0
02/11:00am 31.3 26.3 -3.9 10 15.9 SE 13 20 7 11 1018.1 1017.5 0.0
02/10:30am 30.1 25.0 -4.8 10 15.4 S 13 19 7 10 1018.3 1017.7 0.0
02/10:00am 28.8 23.9 -3.4 12 14.4 S 13 20 7 11 1018.4 1017.8 0.0
02/09:30am 27.8 22.9 -3.1 13 13.8 S 13 17 7 9 1018.3 1017.7 0.0
02/09:00am 25.5 21.9 -2.1 16 12.3 SE 7 9 4 5 1018.0 1017.3 0.0
02/08:30am 22.4 18.9 -1.0 21 10.4 S 7 9 4 5 1017.7 1017.0 0.0
02/08:24am 21.7 19.3 -0.3 23 9.9 S 2 9 1 5 1017.7 1017.0 0.0
02/08:00am 16.7 14.8 0.4 33 7.1 CALM 0 0 0 0 1017.4 1016.7 0.0
02/07:30am 12.5 8.8 0.0 42 5.2 S 9 11 5 6 1017.0 1016.3 0.0
02/07:00am 11.1 7.2 -1.3 42 4.9 NE 9 13 5 7 1016.8 1016.1 0.0
02/06:30am 10.6 7.2 -1.8 42 4.8 ESE 6 7 3 4 1016.6 1015.9 0.0
02/06:00am 11.2 7.9 -1.5 41 5.0 S 6 11 3 6 1016.4 1015.7 0.0
02/05:30am 12.3 8.4 -1.6 38 5.6 SSW 9 13 5 7 1016.4 1015.7 0.0
02/05:00am 12.4 8.4 -1.9 37 5.7 NNE 9 15 5 8 1016.4 1015.7 0.0
02/04:30am 12.2 9.1 -2.4 36 5.7 ENE 4 9 2 5 1016.3 1015.6 0.0
02/04:00am 12.8 9.7 -2.3 35 6.0 W 4 9 2 5 1016.1 1015.4 0.0
02/03:30am 13.5 9.5 -2.0 34 6.2 SSW 9 13 5 7 1016.0 1015.3 0.0
02/03:00am 13.6 9.6 -2.3 33 6.3 SW 9 11 5 6 1016.1 1015.4 0.0
02/02:30am 14.2 10.1 -2.7 31 6.7 SSW 9 13 5 7 1016.2 1015.5 0.0
02/02:00am 15.4 11.7 -3.0 28 7.3 S 7 9 4 5 1016.3 1015.6 0.0
02/01:30am 15.5 11.9 -2.0 30 7.2 S 7 13 4 7 1016.3 1015.6 0.0
02/01:00am 15.9 12.2 -2.6 28 7.5 SSW 7 9 4 5 1016.4 1015.7 0.0
02/12:30am 17.0 13.4 -2.1 27 7.9 ESE 7 11 4 6 1016.5 1015.8 0.0
02/12:00am 16.1 12.7 -1.9 29 7.4 SSW 6 9 3 5 1016.3 1015.6 0.0
 
Date/Time
EST
Temp
°C
App
Temp
°C
Dew
Point
Rel
Hum
%
Delta-T
°C
Wind Press
QNH
hPa
Press
MSL
hPa
Rain
since 9 am
mm
Dir
 
Spd
km/h
Gust
km/h
Spd
kts
Gust
kts
01/11:30pm 16.8 14.1 -2.3 27 7.9 S 2 7 1 4 1016.2 1015.5 0.0
01/11:00pm 18.0 14.3 -2.8 24 8.6 S 7 9 4 5 1015.8 1015.1 0.0
01/10:30pm 18.5 14.6 -1.3 26 8.5 SE 9 13 5 7 1016.0 1015.3 0.0
01/10:00pm 18.7 14.6 -2.8 23 8.9 SW 9 11 5 6 1015.4 1014.7 0.0
01/09:30pm 20.7 16.7 -2.4 21 9.8 SW 9 11 5 6 1015.1 1014.4 0.0
01/09:00pm 22.1 17.9 -4.1 17 10.9 SW 9 9 5 5 1015.1 1014.4 0.0
01/08:30pm 23.6 19.3 -4.5 15 11.8 SW 9 11 5 6 1014.9 1014.2 0.0
01/08:00pm 23.9 19.7 -4.3 15 11.9 SW 9 11 5 6 1014.5 1013.8 0.0
01/07:30pm 25.2 21.5 -4.2 14 12.6 SSW 6 9 3 5 1014.2 1013.5 0.0
01/07:00pm 27.7 23.5 -4.3 12 14.0 SSW 9 11 5 6 1013.8 1013.1 0.0
01/06:30pm 29.7 25.5 -3.9 11 15.0 SW 9 11 5 6 1013.5 1012.8 0.0
01/06:00pm 31.6 27.4 -3.7 10 16.1 S 9 15 5 8 1013.3 1012.6 0.0
01/05:30pm 32.4 27.9 -3.1 10 16.4 S 11 19 6 10 1013.2 1012.5 0.0
01/05:00pm 33.1 29.1 -2.6 10 16.8 SSW 9 17 5 9 1012.9 1012.2 0.0
01/04:30pm 33.7 30.1 -2.1 10 17.0 W 7 13 4 7 1012.8 1012.1 0.0
01/04:00pm 33.7 30.1 -2.1 10 17.0 WSW 7 15 4 8 1012.8 1012.1 0.0
01/03:30pm 33.5 30.1 -2.3 10 16.9 WNW 6 11 3 6 1013.1 1012.4 0.0
01/03:00pm 33.0 29.0 -2.6 10 16.7 ESE 9 15 5 8 1013.2 1012.5 0.0
01/02:30pm 33.9 30.3 -2.0 10 17.1 NE 7 11 4 6 1013.6 1012.9 0.0
01/02:00pm 32.1 28.1 -2.0 11 16.1 ESE 9 17 5 9 1014.1 1013.4 0.0
01/01:30pm 31.8 27.4 -2.3 11 15.9 WSW 11 17 6 9 1014.7 1014.0 0.0
01/01:00pm 31.8 27.8 -2.3 11 15.9 SSW 9 19 5 10 1015.4 1014.7 0.0
01/12:30pm 30.8 26.8 -1.9 12 15.3 S 9 15 5 8 1015.9 1015.2 0.0
01/12:00pm 30.3 26.3 -2.2 12 15.0 SSE 9 17 5 9 1016.6 1015.9 0.0
01/11:30am 30.7 26.7 -1.9 12 15.2 E 9 19 5 10 1017.2 1016.5 0.0
01/11:00am 29.7 25.8 -1.6 13 14.6 SE 9 15 5 8 1017.5 1016.8 0.0
01/10:30am 29.2 25.7 -1.0 14 14.2 E 7 17 4 9 1017.9 1017.2 0.0
01/10:00am 27.6 24.2 -0.5 16 13.1 E 7 11 4 6 1017.9 1017.2 0.0
01/09:30am 26.4 22.6 -0.6 17 12.5 SE 9 13 5 7 1017.9 1017.5 0.0
01/09:00am 25.0 23.4 2.4 23 10.9 CALM 0 0 0 0 1018.0 1017.6 0.0
01/08:30am 20.3 18.8 3.1 32 8.1 CALM 0 0 0 0 1017.8 1017.4 0.0
01/08:00am 17.1 15.9 4.4 43 6.0 CALM 0 0 0 0 1017.5 1017.1 0.0
01/07:53am 16.1 14.8 4.2 45 5.6 CALM 0 0 0 0 1017.3 1016.9 0.0
01/07:30am 11.1 9.4 1.9 53 3.9 CALM 0 0 0 0 1016.8 1016.4 0.0
01/07:00am 9.8 8.1 1.7 57 3.4 CALM 0 0 0 0 1016.4 1015.9 0.0
01/06:30am 9.7 7.9 0.9 54 3.6 CALM 0 0 0 0 1016.0 1015.5 0.0
01/06:00am 10.1 8.3 1.0 53 3.8 CALM 0 0 0 0 1015.6 1015.1 0.0
01/05:30am 10.7 8.9 1.3 52 3.9 CALM 0 0 0 0 1015.3 1014.8 0.0
01/05:00am 11.1 8.0 0.2 47 4.5 SSW 6 7 3 4 1015.1 1014.6 0.0
01/04:30am 11.7 8.4 0.2 45 4.8 S 7 9 4 5 1014.8 1014.3 0.0
01/04:00am 11.5 9.1 -0.3 44 4.8 NE 2 9 1 5 1014.8 1014.3 0.0
01/03:30am 11.9 9.5 -0.6 42 5.1 N 2 6 1 3 1014.7 1014.2 0.0
01/03:00am 13.1 10.7 -0.5 39 5.6 SSW 2 7 1 4 1014.6 1014.1 0.0
01/02:30am 13.8 11.7 -0.6 37 6.0 CALM 0 4 0 2 1014.6 1014.1 0.0
01/02:00am 15.3 11.9 -0.4 34 6.6 NW 7 9 4 5 1014.7 1014.2 0.0
01/01:30am 13.4 11.4 0.1 40 5.6 CALM 0 0 0 0 1014.7 1014.2 0.0
01/01:00am 13.5 10.2 -0.2 39 5.7 SW 7 9 4 5 1014.8 1014.3 0.0
01/12:30am 14.3 11.5 -0.6 36 6.2 SSW 4 6 2 3 1014.8 1014.3 0.0
01/12:00am 14.5 11.0 -1.2 34 6.5 SSW 7 9 4 5 1014.7 1014.2 0.0
 
Date/Time
EST
Temp
°C
App
Temp
°C
Dew
Point
Rel
Hum
%
Delta-T
°C
Wind Press
QNH
hPa
Press
MSL
hPa
Rain
since 9 am
mm
Dir
 
Spd
km/h
Gust
km/h
Spd
kts
Gust
kts
31/11:30pm 15.1 11.3 -1.0 33 6.7 SSW 9 11 5 6 1014.8 1014.3 0.0
31/11:00pm 15.4 11.9 -1.2 32 6.9 SW 7 9 4 5 1014.9 1014.4 0.0
31/10:30pm 16.1 13.6 -1.0 31 7.2 SW 2 6 1 3 1015.0 1014.5 0.0
31/10:00pm 16.6 13.1 -1.5 29 7.6 SW 7 9 4 5 1015.0 1014.5 0.0
31/09:30pm 18.2 14.9 -1.1 27 8.3 SW 6 9 3 5 1014.9 1014.4 0.0
31/09:00pm 19.3 16.4 -1.2 25 8.8 SE 4 7 2 4 1014.7 1014.2 0.0
31/08:30pm 20.5 17.2 -1.3 23 9.5 SW 6 6 3 3 1014.4 1013.9 0.0
31/08:00pm 21.2 17.6 -2.0 21 10.0 SW 7 9 4 5 1014.0 1013.5 0.0
31/07:30pm 23.5 20.1 -2.2 18 11.3 S 6 7 3 4 1013.7 1013.2 0.0
31/07:00pm 25.6 21.9 -2.9 15 12.6 S 7 9 4 5 1013.3 1012.8 0.0
31/06:30pm 28.5 24.8 -2.6 13 14.1 S 7 13 4 7 1013.1 1012.6 0.0
31/06:00pm 30.0 26.0 -2.5 12 14.9 SSE 9 15 5 8 1012.9 1012.4 0.0
31/05:30pm 30.8 26.8 -1.9 12 15.3 SSE 9 17 5 9 1012.7 1012.2 0.0
31/05:00pm 31.3 27.4 -1.5 12 15.5 SW 9 17 5 9 1012.5 1012.0 0.0
31/04:30pm 31.5 27.2 -1.3 12 15.6 E 11 20 6 11 1012.5 1012.0 0.0
31/04:00pm 32.0 27.4 -0.9 12 15.8 SSE 13 20 7 11 1012.7 1012.2 0.0
31/03:30pm 31.6 25.6 -1.2 12 15.6 S 20 24 11 13 1012.7 1012.2 0.0
31/03:00pm 31.3 26.6 -1.5 12 15.5 ESE 13 24 7 13 1013.2 1012.7 0.0
31/02:30pm 31.2 26.9 -1.5 12 15.4 E 11 22 6 12 1013.5 1013.0 0.0

Other Formats:

Comma delimited format used in spreadsheet applications
http://www.bom.gov.au/fwo/IDQ60801/IDQ60801.94261.axf

JavaScript Object Notation format (JSON) in row-major order
http://www.bom.gov.au/fwo/IDQ60801/IDQ60801.94261.json